<?xml version="1.0" encoding="UTF-8" standalone="no" ?>
<gpx xmlns="http://www.topografix.com/GPX/1/1" xmlns:xsi="http://www.w3.org/2001/XMLSchema-instance" xsi:schemaLocation="http://www.topografix.com/GPX/1/1 http://www.topografix.com/GPX/1/1/gpx.xsd" version="1.1" creator="VisuGPX - https://www.visugpx.com">
  <metadata>
    <name>Caucalières le Causse dimanche 29 nov. 2020</name>
  </metadata>
  <trk>
    <name><![CDATA[Caucalières le Causse dimanche 29 nov. 2020]]></name>
    <trkseg>
      <trkpt lat="43.52979" lon="2.30073">
        <ele>198.10231946539</ele>
        <time>2020-11-29T13:54:09Z</time>
      </trkpt>
      <trkpt lat="43.52982" lon="2.30084">
        <ele>186.83894632645</ele>
        <time>2020-11-29T13:54:24Z</time>
      </trkpt>
      <trkpt lat="43.52991" lon="2.30084">
        <ele>188.71525941509</ele>
        <time>2020-11-29T13:54:30Z</time>
      </trkpt>
      <trkpt lat="43.52996" lon="2.30094">
        <ele>190.57606301309</ele>
        <time>2020-11-29T13:55:16Z</time>
      </trkpt>
      <trkpt lat="43.53002" lon="2.30103">
        <ele>191.09171631847</ele>
        <time>2020-11-29T13:55:33Z</time>
      </trkpt>
      <trkpt lat="43.53001" lon="2.30091">
        <ele>195.5081325726</ele>
        <time>2020-11-29T13:56:17Z</time>
      </trkpt>
      <trkpt lat="43.53009" lon="2.3009">
        <ele>191.26919539615</ele>
        <time>2020-11-29T13:56:39Z</time>
      </trkpt>
      <trkpt lat="43.53017" lon="2.30093">
        <ele>191.62177866256</ele>
        <time>2020-11-29T13:56:46Z</time>
      </trkpt>
      <trkpt lat="43.53028" lon="2.30101">
        <ele>190.41719190321</ele>
        <time>2020-11-29T13:56:51Z</time>
      </trkpt>
      <trkpt lat="43.53034" lon="2.30108">
        <ele>192.18619569328</ele>
        <time>2020-11-29T13:56:56Z</time>
      </trkpt>
      <trkpt lat="43.53042" lon="2.30114">
        <ele>192.90516726858</ele>
        <time>2020-11-29T13:57:01Z</time>
      </trkpt>
      <trkpt lat="43.53049" lon="2.30121">
        <ele>193.55909257745</ele>
        <time>2020-11-29T13:57:07Z</time>
      </trkpt>
      <trkpt lat="43.53052" lon="2.30132">
        <ele>192.76940924474</ele>
        <time>2020-11-29T13:57:16Z</time>
      </trkpt>
      <trkpt lat="43.53057" lon="2.30142">
        <ele>193.85323116923</ele>
        <time>2020-11-29T13:57:23Z</time>
      </trkpt>
      <trkpt lat="43.53062" lon="2.30152">
        <ele>194.73808585996</ele>
        <time>2020-11-29T13:57:31Z</time>
      </trkpt>
      <trkpt lat="43.53068" lon="2.30159">
        <ele>195.71895324196</ele>
        <time>2020-11-29T13:57:37Z</time>
      </trkpt>
      <trkpt lat="43.53068" lon="2.30171">
        <ele>194.18614113104</ele>
        <time>2020-11-29T13:57:46Z</time>
      </trkpt>
      <trkpt lat="43.53075" lon="2.30174">
        <ele>195.21540080766</ele>
        <time>2020-11-29T13:57:50Z</time>
      </trkpt>
      <trkpt lat="43.53081" lon="2.30182">
        <ele>195.84451246583</ele>
        <time>2020-11-29T13:57:57Z</time>
      </trkpt>
      <trkpt lat="43.53087" lon="2.30192">
        <ele>196.83513392278</ele>
        <time>2020-11-29T13:58:05Z</time>
      </trkpt>
      <trkpt lat="43.53089" lon="2.30203">
        <ele>198.53829785969</ele>
        <time>2020-11-29T13:58:14Z</time>
      </trkpt>
      <trkpt lat="43.53094" lon="2.30211">
        <ele>199.8307689072</ele>
        <time>2020-11-29T13:58:20Z</time>
      </trkpt>
      <trkpt lat="43.53101" lon="2.30217">
        <ele>200.67787382283</ele>
        <time>2020-11-29T13:58:24Z</time>
      </trkpt>
      <trkpt lat="43.53108" lon="2.30225">
        <ele>200.56022981729</ele>
        <time>2020-11-29T13:58:29Z</time>
      </trkpt>
      <trkpt lat="43.53111" lon="2.30236">
        <ele>202.72834296905</ele>
        <time>2020-11-29T13:58:37Z</time>
      </trkpt>
      <trkpt lat="43.53113" lon="2.30246">
        <ele>204.24944625105</ele>
        <time>2020-11-29T13:58:44Z</time>
      </trkpt>
      <trkpt lat="43.53117" lon="2.30257">
        <ele>203.37717275165</ele>
        <time>2020-11-29T13:58:52Z</time>
      </trkpt>
      <trkpt lat="43.53118" lon="2.30269">
        <ele>202.5085623831</ele>
        <time>2020-11-29T13:59:00Z</time>
      </trkpt>
      <trkpt lat="43.53122" lon="2.30279">
        <ele>203.13458001697</ele>
        <time>2020-11-29T13:59:06Z</time>
      </trkpt>
      <trkpt lat="43.53123" lon="2.30291">
        <ele>201.90232296753</ele>
        <time>2020-11-29T13:59:12Z</time>
      </trkpt>
      <trkpt lat="43.53122" lon="2.30302">
        <ele>200.95398943011</ele>
        <time>2020-11-29T13:59:18Z</time>
      </trkpt>
      <trkpt lat="43.53126" lon="2.3031">
        <ele>201.04122669019</ele>
        <time>2020-11-29T13:59:24Z</time>
      </trkpt>
      <trkpt lat="43.53119" lon="2.30311">
        <ele>199.99604964789</ele>
        <time>2020-11-29T13:59:45Z</time>
      </trkpt>
      <trkpt lat="43.53112" lon="2.30317">
        <ele>200.00407079656</ele>
        <time>2020-11-29T13:59:51Z</time>
      </trkpt>
      <trkpt lat="43.53108" lon="2.30327">
        <ele>201.500606949</ele>
        <time>2020-11-29T13:59:57Z</time>
      </trkpt>
      <trkpt lat="43.53106" lon="2.30339">
        <ele>202.98737940105</ele>
        <time>2020-11-29T14:00:04Z</time>
      </trkpt>
      <trkpt lat="43.53105" lon="2.30351">
        <ele>205.53668254471</ele>
        <time>2020-11-29T14:00:16Z</time>
      </trkpt>
      <trkpt lat="43.53101" lon="2.30362">
        <ele>205.25881069148</ele>
        <time>2020-11-29T14:00:28Z</time>
      </trkpt>
      <trkpt lat="43.53097" lon="2.30372">
        <ele>205.47964451059</ele>
        <time>2020-11-29T14:00:36Z</time>
      </trkpt>
      <trkpt lat="43.53094" lon="2.30383">
        <ele>208.6766463124</ele>
        <time>2020-11-29T14:00:53Z</time>
      </trkpt>
      <trkpt lat="43.53089" lon="2.30393">
        <ele>209.86324095484</ele>
        <time>2020-11-29T14:01:10Z</time>
      </trkpt>
      <trkpt lat="43.53084" lon="2.30401">
        <ele>208.75369199489</ele>
        <time>2020-11-29T14:01:17Z</time>
      </trkpt>
      <trkpt lat="43.53079" lon="2.30412">
        <ele>212.28435130518</ele>
        <time>2020-11-29T14:01:28Z</time>
      </trkpt>
      <trkpt lat="43.53073" lon="2.30419">
        <ele>213.12767956034</ele>
        <time>2020-11-29T14:01:41Z</time>
      </trkpt>
      <trkpt lat="43.53066" lon="2.30426">
        <ele>217.01281907397</ele>
        <time>2020-11-29T14:01:50Z</time>
      </trkpt>
      <trkpt lat="43.53058" lon="2.30428">
        <ele>220.20108379516</ele>
        <time>2020-11-29T14:02:13Z</time>
      </trkpt>
      <trkpt lat="43.5305" lon="2.30434">
        <ele>220.59825405777</ele>
        <time>2020-11-29T14:02:25Z</time>
      </trkpt>
      <trkpt lat="43.53044" lon="2.30442">
        <ele>221.10193363462</ele>
        <time>2020-11-29T14:03:07Z</time>
      </trkpt>
      <trkpt lat="43.53039" lon="2.30452">
        <ele>219.81805770186</ele>
        <time>2020-11-29T14:03:17Z</time>
      </trkpt>
      <trkpt lat="43.53033" lon="2.3046">
        <ele>221.58366803177</ele>
        <time>2020-11-29T14:03:26Z</time>
      </trkpt>
      <trkpt lat="43.53027" lon="2.30468">
        <ele>226.45755682131</ele>
        <time>2020-11-29T14:03:35Z</time>
      </trkpt>
      <trkpt lat="43.53021" lon="2.30477">
        <ele>227.5117377834</ele>
        <time>2020-11-29T14:03:44Z</time>
      </trkpt>
      <trkpt lat="43.53018" lon="2.30488">
        <ele>229.2277892431</ele>
        <time>2020-11-29T14:03:56Z</time>
      </trkpt>
      <trkpt lat="43.53013" lon="2.30497">
        <ele>228.01327769945</ele>
        <time>2020-11-29T14:04:05Z</time>
      </trkpt>
      <trkpt lat="43.53006" lon="2.30503">
        <ele>226.87133217122</ele>
        <time>2020-11-29T14:04:14Z</time>
      </trkpt>
      <trkpt lat="43.52998" lon="2.30507">
        <ele>226.40893491194</ele>
        <time>2020-11-29T14:04:22Z</time>
      </trkpt>
      <trkpt lat="43.52991" lon="2.30513">
        <ele>228.31305323145</ele>
        <time>2020-11-29T14:04:29Z</time>
      </trkpt>
      <trkpt lat="43.52983" lon="2.30521">
        <ele>229.17763703136</ele>
        <time>2020-11-29T14:04:34Z</time>
      </trkpt>
      <trkpt lat="43.52976" lon="2.30526">
        <ele>231.7734308758</ele>
        <time>2020-11-29T14:04:43Z</time>
      </trkpt>
      <trkpt lat="43.52969" lon="2.30533">
        <ele>232.71816070625</ele>
        <time>2020-11-29T14:04:50Z</time>
      </trkpt>
      <trkpt lat="43.52962" lon="2.30539">
        <ele>232.083333609</ele>
        <time>2020-11-29T14:04:58Z</time>
      </trkpt>
      <trkpt lat="43.52956" lon="2.30546">
        <ele>231.55619494918</ele>
        <time>2020-11-29T14:05:05Z</time>
      </trkpt>
      <trkpt lat="43.52949" lon="2.30554">
        <ele>232.12254610544</ele>
        <time>2020-11-29T14:05:13Z</time>
      </trkpt>
      <trkpt lat="43.52943" lon="2.30562">
        <ele>232.97084406245</ele>
        <time>2020-11-29T14:05:21Z</time>
      </trkpt>
      <trkpt lat="43.52937" lon="2.30571">
        <ele>234.5834510202</ele>
        <time>2020-11-29T14:05:27Z</time>
      </trkpt>
      <trkpt lat="43.52933" lon="2.30582">
        <ele>237.0176043313</ele>
        <time>2020-11-29T14:05:39Z</time>
      </trkpt>
      <trkpt lat="43.52927" lon="2.30589">
        <ele>237.4992085078</ele>
        <time>2020-11-29T14:05:45Z</time>
      </trkpt>
      <trkpt lat="43.52922" lon="2.30599">
        <ele>236.59445832919</ele>
        <time>2020-11-29T14:05:58Z</time>
      </trkpt>
      <trkpt lat="43.52915" lon="2.30605">
        <ele>235.67717918107</ele>
        <time>2020-11-29T14:06:02Z</time>
      </trkpt>
      <trkpt lat="43.52916" lon="2.30616">
        <ele>234.91408793969</ele>
        <time>2020-11-29T14:06:12Z</time>
      </trkpt>
      <trkpt lat="43.52917" lon="2.30627">
        <ele>234.89326896155</ele>
        <time>2020-11-29T14:06:20Z</time>
      </trkpt>
      <trkpt lat="43.52917" lon="2.30639">
        <ele>234.9693127855</ele>
        <time>2020-11-29T14:06:28Z</time>
      </trkpt>
      <trkpt lat="43.52918" lon="2.30651">
        <ele>234.68354725929</ele>
        <time>2020-11-29T14:06:36Z</time>
      </trkpt>
      <trkpt lat="43.52922" lon="2.3066">
        <ele>234.10716872871</ele>
        <time>2020-11-29T14:06:43Z</time>
      </trkpt>
      <trkpt lat="43.52924" lon="2.30671">
        <ele>234.94558932392</ele>
        <time>2020-11-29T14:06:50Z</time>
      </trkpt>
      <trkpt lat="43.5293" lon="2.30679">
        <ele>236.82228965938</ele>
        <time>2020-11-29T14:06:56Z</time>
      </trkpt>
      <trkpt lat="43.52929" lon="2.3069">
        <ele>235.52951788312</ele>
        <time>2020-11-29T14:07:38Z</time>
      </trkpt>
      <trkpt lat="43.52933" lon="2.30701">
        <ele>236.55681133035</ele>
        <time>2020-11-29T14:07:54Z</time>
      </trkpt>
      <trkpt lat="43.52938" lon="2.3071">
        <ele>235.10164817184</ele>
        <time>2020-11-29T14:08:01Z</time>
      </trkpt>
      <trkpt lat="43.5294" lon="2.3072">
        <ele>233.63785678435</ele>
        <time>2020-11-29T14:08:09Z</time>
      </trkpt>
      <trkpt lat="43.52944" lon="2.3073">
        <ele>233.28297914872</ele>
        <time>2020-11-29T14:08:16Z</time>
      </trkpt>
      <trkpt lat="43.5295" lon="2.30736">
        <ele>234.39913610958</ele>
        <time>2020-11-29T14:08:21Z</time>
      </trkpt>
      <trkpt lat="43.52956" lon="2.30745">
        <ele>236.43331208381</ele>
        <time>2020-11-29T14:08:27Z</time>
      </trkpt>
      <trkpt lat="43.52961" lon="2.30755">
        <ele>237.34256019458</ele>
        <time>2020-11-29T14:08:34Z</time>
      </trkpt>
      <trkpt lat="43.52967" lon="2.30764">
        <ele>237.96338373719</ele>
        <time>2020-11-29T14:08:42Z</time>
      </trkpt>
      <trkpt lat="43.52974" lon="2.3077">
        <ele>234.25905098006</ele>
        <time>2020-11-29T14:09:04Z</time>
      </trkpt>
      <trkpt lat="43.52981" lon="2.30777">
        <ele>231.395237046</ele>
        <time>2020-11-29T14:09:12Z</time>
      </trkpt>
      <trkpt lat="43.52988" lon="2.30782">
        <ele>232.33737176117</ele>
        <time>2020-11-29T14:09:19Z</time>
      </trkpt>
      <trkpt lat="43.52996" lon="2.30789">
        <ele>232.8125808308</ele>
        <time>2020-11-29T14:09:28Z</time>
      </trkpt>
      <trkpt lat="43.53003" lon="2.30794">
        <ele>233.80119061355</ele>
        <time>2020-11-29T14:09:35Z</time>
      </trkpt>
      <trkpt lat="43.53007" lon="2.30804">
        <ele>235.08059779189</ele>
        <time>2020-11-29T14:09:42Z</time>
      </trkpt>
      <trkpt lat="43.53011" lon="2.30815">
        <ele>236.73408559364</ele>
        <time>2020-11-29T14:09:49Z</time>
      </trkpt>
      <trkpt lat="43.53012" lon="2.30826">
        <ele>237.13273809991</ele>
        <time>2020-11-29T14:09:56Z</time>
      </trkpt>
      <trkpt lat="43.53016" lon="2.30835">
        <ele>237.23747952409</ele>
        <time>2020-11-29T14:10:04Z</time>
      </trkpt>
      <trkpt lat="43.53021" lon="2.30846">
        <ele>238.27685227593</ele>
        <time>2020-11-29T14:10:12Z</time>
      </trkpt>
      <trkpt lat="43.53024" lon="2.30855">
        <ele>238.88968322821</ele>
        <time>2020-11-29T14:10:19Z</time>
      </trkpt>
      <trkpt lat="43.53031" lon="2.30861">
        <ele>239.94734862059</ele>
        <time>2020-11-29T14:10:25Z</time>
      </trkpt>
      <trkpt lat="43.53038" lon="2.3087">
        <ele>240.44854236086</ele>
        <time>2020-11-29T14:10:32Z</time>
      </trkpt>
      <trkpt lat="43.53038" lon="2.30881">
        <ele>238.79426894354</ele>
        <time>2020-11-29T14:10:43Z</time>
      </trkpt>
      <trkpt lat="43.53045" lon="2.30887">
        <ele>239.18622290571</ele>
        <time>2020-11-29T14:10:48Z</time>
      </trkpt>
      <trkpt lat="43.53053" lon="2.30893">
        <ele>239.87216702356</ele>
        <time>2020-11-29T14:10:54Z</time>
      </trkpt>
      <trkpt lat="43.53057" lon="2.30902">
        <ele>239.88601322747</ele>
        <time>2020-11-29T14:11:00Z</time>
      </trkpt>
      <trkpt lat="43.5306" lon="2.30914">
        <ele>238.92326262363</ele>
        <time>2020-11-29T14:11:08Z</time>
      </trkpt>
      <trkpt lat="43.53063" lon="2.30924">
        <ele>238.88709650744</ele>
        <time>2020-11-29T14:11:14Z</time>
      </trkpt>
      <trkpt lat="43.53065" lon="2.30934">
        <ele>237.58632356923</ele>
        <time>2020-11-29T14:11:21Z</time>
      </trkpt>
      <trkpt lat="43.5307" lon="2.30944">
        <ele>239.12206950688</ele>
        <time>2020-11-29T14:11:29Z</time>
      </trkpt>
      <trkpt lat="43.53074" lon="2.30955">
        <ele>239.08180804722</ele>
        <time>2020-11-29T14:11:35Z</time>
      </trkpt>
      <trkpt lat="43.53075" lon="2.30967">
        <ele>238.68394312134</ele>
        <time>2020-11-29T14:11:44Z</time>
      </trkpt>
      <trkpt lat="43.5308" lon="2.30976">
        <ele>239.41650014036</ele>
        <time>2020-11-29T14:11:50Z</time>
      </trkpt>
      <trkpt lat="43.53077" lon="2.30987">
        <ele>238.33439031392</ele>
        <time>2020-11-29T14:11:59Z</time>
      </trkpt>
      <trkpt lat="43.53084" lon="2.30995">
        <ele>238.08804369027</ele>
        <time>2020-11-29T14:12:05Z</time>
      </trkpt>
      <trkpt lat="43.53091" lon="2.31001">
        <ele>238.35903165033</ele>
        <time>2020-11-29T14:12:11Z</time>
      </trkpt>
      <trkpt lat="43.53098" lon="2.31008">
        <ele>239.04695432622</ele>
        <time>2020-11-29T14:12:17Z</time>
      </trkpt>
      <trkpt lat="43.53103" lon="2.31018">
        <ele>238.50267426537</ele>
        <time>2020-11-29T14:12:23Z</time>
      </trkpt>
      <trkpt lat="43.53106" lon="2.31029">
        <ele>237.04762380809</ele>
        <time>2020-11-29T14:12:31Z</time>
      </trkpt>
      <trkpt lat="43.53112" lon="2.31037">
        <ele>237.12183341548</ele>
        <time>2020-11-29T14:12:38Z</time>
      </trkpt>
      <trkpt lat="43.53116" lon="2.31047">
        <ele>239.09748335921</ele>
        <time>2020-11-29T14:12:46Z</time>
      </trkpt>
      <trkpt lat="43.53115" lon="2.31057">
        <ele>239.64147617461</ele>
        <time>2020-11-29T14:13:00Z</time>
      </trkpt>
      <trkpt lat="43.53119" lon="2.31068">
        <ele>238.40649796265</ele>
        <time>2020-11-29T14:13:06Z</time>
      </trkpt>
      <trkpt lat="43.53123" lon="2.31078">
        <ele>239.43115777824</ele>
        <time>2020-11-29T14:13:12Z</time>
      </trkpt>
      <trkpt lat="43.53127" lon="2.31088">
        <ele>241.00303934893</ele>
        <time>2020-11-29T14:13:18Z</time>
      </trkpt>
      <trkpt lat="43.53128" lon="2.31099">
        <ele>239.82245469802</ele>
        <time>2020-11-29T14:13:26Z</time>
      </trkpt>
      <trkpt lat="43.53132" lon="2.3111">
        <ele>239.62087384625</ele>
        <time>2020-11-29T14:13:33Z</time>
      </trkpt>
      <trkpt lat="43.53138" lon="2.31118">
        <ele>240.64118523798</ele>
        <time>2020-11-29T14:13:39Z</time>
      </trkpt>
      <trkpt lat="43.53141" lon="2.3113">
        <ele>239.29339999269</ele>
        <time>2020-11-29T14:13:46Z</time>
      </trkpt>
      <trkpt lat="43.53144" lon="2.31139">
        <ele>238.07494230616</ele>
        <time>2020-11-29T14:13:52Z</time>
      </trkpt>
      <trkpt lat="43.53149" lon="2.31149">
        <ele>237.29594028047</ele>
        <time>2020-11-29T14:13:58Z</time>
      </trkpt>
      <trkpt lat="43.53152" lon="2.31159">
        <ele>236.0381291045</ele>
        <time>2020-11-29T14:14:06Z</time>
      </trkpt>
      <trkpt lat="43.53156" lon="2.31169">
        <ele>234.86910736935</ele>
        <time>2020-11-29T14:14:13Z</time>
      </trkpt>
      <trkpt lat="43.53156" lon="2.31181">
        <ele>235.28080540243</ele>
        <time>2020-11-29T14:14:20Z</time>
      </trkpt>
      <trkpt lat="43.53155" lon="2.31193">
        <ele>235.31083146946</ele>
        <time>2020-11-29T14:14:27Z</time>
      </trkpt>
      <trkpt lat="43.53159" lon="2.31203">
        <ele>236.19944260652</ele>
        <time>2020-11-29T14:14:33Z</time>
      </trkpt>
      <trkpt lat="43.53165" lon="2.31211">
        <ele>237.18707574564</ele>
        <time>2020-11-29T14:14:39Z</time>
      </trkpt>
      <trkpt lat="43.53172" lon="2.31218">
        <ele>238.37516338816</ele>
        <time>2020-11-29T14:14:44Z</time>
      </trkpt>
      <trkpt lat="43.53177" lon="2.31228">
        <ele>238.7044481851</ele>
        <time>2020-11-29T14:14:51Z</time>
      </trkpt>
      <trkpt lat="43.53182" lon="2.31238">
        <ele>238.93684855063</ele>
        <time>2020-11-29T14:14:59Z</time>
      </trkpt>
      <trkpt lat="43.53189" lon="2.31244">
        <ele>240.8130425004</ele>
        <time>2020-11-29T14:15:05Z</time>
      </trkpt>
      <trkpt lat="43.53194" lon="2.31253">
        <ele>243.06824555788</ele>
        <time>2020-11-29T14:15:11Z</time>
      </trkpt>
      <trkpt lat="43.532" lon="2.31261">
        <ele>244.43000359252</ele>
        <time>2020-11-29T14:15:18Z</time>
      </trkpt>
      <trkpt lat="43.53207" lon="2.31269">
        <ele>245.55413075955</ele>
        <time>2020-11-29T14:15:25Z</time>
      </trkpt>
      <trkpt lat="43.53212" lon="2.31278">
        <ele>246.31064859244</ele>
        <time>2020-11-29T14:15:32Z</time>
      </trkpt>
      <trkpt lat="43.53218" lon="2.31287">
        <ele>247.29437034241</ele>
        <time>2020-11-29T14:15:39Z</time>
      </trkpt>
      <trkpt lat="43.53223" lon="2.31296">
        <ele>247.4314989766</ele>
        <time>2020-11-29T14:15:47Z</time>
      </trkpt>
      <trkpt lat="43.53224" lon="2.31308">
        <ele>246.64918242859</ele>
        <time>2020-11-29T14:15:55Z</time>
      </trkpt>
      <trkpt lat="43.5323" lon="2.31317">
        <ele>245.6771871632</ele>
        <time>2020-11-29T14:16:01Z</time>
      </trkpt>
      <trkpt lat="43.53235" lon="2.31325">
        <ele>245.31271557075</ele>
        <time>2020-11-29T14:16:08Z</time>
      </trkpt>
      <trkpt lat="43.5324" lon="2.31334">
        <ele>244.99715048279</ele>
        <time>2020-11-29T14:16:15Z</time>
      </trkpt>
      <trkpt lat="43.53244" lon="2.31344">
        <ele>245.00899476204</ele>
        <time>2020-11-29T14:16:23Z</time>
      </trkpt>
      <trkpt lat="43.53247" lon="2.31355">
        <ele>243.10827666015</ele>
        <time>2020-11-29T14:16:31Z</time>
      </trkpt>
      <trkpt lat="43.53253" lon="2.31362">
        <ele>243.93486923605</ele>
        <time>2020-11-29T14:16:37Z</time>
      </trkpt>
      <trkpt lat="43.5326" lon="2.31369">
        <ele>246.80134917434</ele>
        <time>2020-11-29T14:16:43Z</time>
      </trkpt>
      <trkpt lat="43.53266" lon="2.31375">
        <ele>248.81221121611</ele>
        <time>2020-11-29T14:16:47Z</time>
      </trkpt>
      <trkpt lat="43.53273" lon="2.31383">
        <ele>248.42852927006</ele>
        <time>2020-11-29T14:16:55Z</time>
      </trkpt>
      <trkpt lat="43.53278" lon="2.31392">
        <ele>247.78339153046</ele>
        <time>2020-11-29T14:17:03Z</time>
      </trkpt>
      <trkpt lat="43.53284" lon="2.314">
        <ele>247.20051013165</ele>
        <time>2020-11-29T14:17:10Z</time>
      </trkpt>
      <trkpt lat="43.53292" lon="2.31406">
        <ele>247.09614516921</ele>
        <time>2020-11-29T14:17:18Z</time>
      </trkpt>
      <trkpt lat="43.53301" lon="2.31407">
        <ele>246.05883795132</ele>
        <time>2020-11-29T14:17:26Z</time>
      </trkpt>
      <trkpt lat="43.53309" lon="2.31411">
        <ele>245.03862447108</ele>
        <time>2020-11-29T14:17:33Z</time>
      </trkpt>
      <trkpt lat="43.53317" lon="2.31414">
        <ele>244.40891115763</ele>
        <time>2020-11-29T14:17:40Z</time>
      </trkpt>
      <trkpt lat="43.53325" lon="2.31419">
        <ele>243.51527834946</ele>
        <time>2020-11-29T14:17:47Z</time>
      </trkpt>
      <trkpt lat="43.53333" lon="2.31422">
        <ele>243.51054993535</ele>
        <time>2020-11-29T14:17:53Z</time>
      </trkpt>
      <trkpt lat="43.53341" lon="2.31426">
        <ele>244.1000334709</ele>
        <time>2020-11-29T14:17:58Z</time>
      </trkpt>
      <trkpt lat="43.53349" lon="2.31433">
        <ele>245.28798894781</ele>
        <time>2020-11-29T14:18:05Z</time>
      </trkpt>
      <trkpt lat="43.53354" lon="2.31442">
        <ele>245.71809059508</ele>
        <time>2020-11-29T14:18:12Z</time>
      </trkpt>
      <trkpt lat="43.53359" lon="2.3145">
        <ele>245.75659233125</ele>
        <time>2020-11-29T14:18:17Z</time>
      </trkpt>
      <trkpt lat="43.5336" lon="2.31462">
        <ele>245.54991311681</ele>
        <time>2020-11-29T14:18:24Z</time>
      </trkpt>
      <trkpt lat="43.53361" lon="2.31474">
        <ele>242.54697898274</ele>
        <time>2020-11-29T14:18:32Z</time>
      </trkpt>
      <trkpt lat="43.53365" lon="2.31483">
        <ele>242.5320467051</ele>
        <time>2020-11-29T14:18:41Z</time>
      </trkpt>
      <trkpt lat="43.53369" lon="2.31494">
        <ele>242.64224519023</ele>
        <time>2020-11-29T14:18:48Z</time>
      </trkpt>
      <trkpt lat="43.53372" lon="2.31506">
        <ele>243.62091034533</ele>
        <time>2020-11-29T14:18:57Z</time>
      </trkpt>
      <trkpt lat="43.53376" lon="2.31516">
        <ele>243.79243842953</ele>
        <time>2020-11-29T14:19:04Z</time>
      </trkpt>
      <trkpt lat="43.53381" lon="2.31525">
        <ele>242.98375556104</ele>
        <time>2020-11-29T14:19:12Z</time>
      </trkpt>
      <trkpt lat="43.53384" lon="2.31536">
        <ele>244.04457225461</ele>
        <time>2020-11-29T14:19:20Z</time>
      </trkpt>
      <trkpt lat="43.53388" lon="2.31546">
        <ele>244.20565831203</ele>
        <time>2020-11-29T14:19:26Z</time>
      </trkpt>
      <trkpt lat="43.53391" lon="2.31556">
        <ele>244.02210864624</ele>
        <time>2020-11-29T14:19:33Z</time>
      </trkpt>
      <trkpt lat="43.53393" lon="2.31568">
        <ele>244.30007806505</ele>
        <time>2020-11-29T14:19:40Z</time>
      </trkpt>
      <trkpt lat="43.53396" lon="2.31579">
        <ele>247.1422356587</ele>
        <time>2020-11-29T14:19:49Z</time>
      </trkpt>
      <trkpt lat="43.53401" lon="2.31588">
        <ele>247.52554298063</ele>
        <time>2020-11-29T14:19:57Z</time>
      </trkpt>
      <trkpt lat="43.53405" lon="2.31599">
        <ele>248.82894994394</ele>
        <time>2020-11-29T14:20:05Z</time>
      </trkpt>
      <trkpt lat="43.5341" lon="2.31608">
        <ele>249.05650635326</ele>
        <time>2020-11-29T14:20:11Z</time>
      </trkpt>
      <trkpt lat="43.53412" lon="2.31618">
        <ele>248.76087164861</ele>
        <time>2020-11-29T14:20:18Z</time>
      </trkpt>
      <trkpt lat="43.53414" lon="2.31629">
        <ele>249.13902724043</ele>
        <time>2020-11-29T14:20:25Z</time>
      </trkpt>
      <trkpt lat="43.53418" lon="2.31639">
        <ele>249.53098811274</ele>
        <time>2020-11-29T14:20:34Z</time>
      </trkpt>
      <trkpt lat="43.5342" lon="2.31651">
        <ele>249.72343442204</ele>
        <time>2020-11-29T14:20:43Z</time>
      </trkpt>
      <trkpt lat="43.53426" lon="2.31657">
        <ele>250.06013888423</ele>
        <time>2020-11-29T14:20:54Z</time>
      </trkpt>
      <trkpt lat="43.53433" lon="2.31664">
        <ele>250.47327215767</ele>
        <time>2020-11-29T14:21:01Z</time>
      </trkpt>
      <trkpt lat="43.53438" lon="2.31671">
        <ele>251.09281492254</ele>
        <time>2020-11-29T14:21:08Z</time>
      </trkpt>
      <trkpt lat="43.53445" lon="2.31679">
        <ele>251.47655245878</ele>
        <time>2020-11-29T14:21:15Z</time>
      </trkpt>
      <trkpt lat="43.53453" lon="2.31683">
        <ele>253.7808592045</ele>
        <time>2020-11-29T14:21:24Z</time>
      </trkpt>
      <trkpt lat="43.5346" lon="2.31688">
        <ele>253.47947270546</ele>
        <time>2020-11-29T14:21:30Z</time>
      </trkpt>
      <trkpt lat="43.53468" lon="2.31693">
        <ele>254.568983434</ele>
        <time>2020-11-29T14:21:38Z</time>
      </trkpt>
      <trkpt lat="43.53476" lon="2.31697">
        <ele>253.93626003761</ele>
        <time>2020-11-29T14:21:45Z</time>
      </trkpt>
      <trkpt lat="43.53485" lon="2.31699">
        <ele>254.35217706454</ele>
        <time>2020-11-29T14:21:53Z</time>
      </trkpt>
      <trkpt lat="43.53493" lon="2.31703">
        <ele>254.33359895236</ele>
        <time>2020-11-29T14:22:01Z</time>
      </trkpt>
      <trkpt lat="43.53501" lon="2.31709">
        <ele>253.11490170246</ele>
        <time>2020-11-29T14:22:08Z</time>
      </trkpt>
      <trkpt lat="43.53507" lon="2.31715">
        <ele>252.53549082348</ele>
        <time>2020-11-29T14:22:16Z</time>
      </trkpt>
      <trkpt lat="43.53513" lon="2.31722">
        <ele>252.45183745897</ele>
        <time>2020-11-29T14:22:21Z</time>
      </trkpt>
      <trkpt lat="43.53519" lon="2.31729">
        <ele>253.75164501086</ele>
        <time>2020-11-29T14:22:27Z</time>
      </trkpt>
      <trkpt lat="43.53525" lon="2.31737">
        <ele>254.21716244175</ele>
        <time>2020-11-29T14:22:35Z</time>
      </trkpt>
      <trkpt lat="43.53532" lon="2.31742">
        <ele>256.03507354109</ele>
        <time>2020-11-29T14:22:42Z</time>
      </trkpt>
      <trkpt lat="43.53539" lon="2.31748">
        <ele>256.41519518832</ele>
        <time>2020-11-29T14:22:50Z</time>
      </trkpt>
      <trkpt lat="43.53546" lon="2.31754">
        <ele>257.36745743982</ele>
        <time>2020-11-29T14:22:57Z</time>
      </trkpt>
      <trkpt lat="43.53551" lon="2.31762">
        <ele>258.35662791669</ele>
        <time>2020-11-29T14:23:09Z</time>
      </trkpt>
      <trkpt lat="43.53558" lon="2.3177">
        <ele>257.33496574927</ele>
        <time>2020-11-29T14:23:16Z</time>
      </trkpt>
      <trkpt lat="43.53565" lon="2.31778">
        <ele>258.21847087186</ele>
        <time>2020-11-29T14:23:25Z</time>
      </trkpt>
      <trkpt lat="43.53572" lon="2.31783">
        <ele>259.91192285224</ele>
        <time>2020-11-29T14:23:32Z</time>
      </trkpt>
      <trkpt lat="43.5358" lon="2.31786">
        <ele>261.94402498862</ele>
        <time>2020-11-29T14:23:40Z</time>
      </trkpt>
      <trkpt lat="43.53589" lon="2.3179">
        <ele>267.4392399786</ele>
        <time>2020-11-29T14:23:50Z</time>
      </trkpt>
      <trkpt lat="43.53597" lon="2.31793">
        <ele>267.01242991899</ele>
        <time>2020-11-29T14:23:58Z</time>
      </trkpt>
      <trkpt lat="43.53605" lon="2.31796">
        <ele>268.97850529598</ele>
        <time>2020-11-29T14:24:05Z</time>
      </trkpt>
      <trkpt lat="43.53613" lon="2.31801">
        <ele>267.56110163235</ele>
        <time>2020-11-29T14:24:12Z</time>
      </trkpt>
      <trkpt lat="43.53613" lon="2.31812">
        <ele>265.2799921079</ele>
        <time>2020-11-29T14:24:29Z</time>
      </trkpt>
      <trkpt lat="43.5362" lon="2.31814">
        <ele>265.4328921014</ele>
        <time>2020-11-29T14:24:46Z</time>
      </trkpt>
      <trkpt lat="43.53629" lon="2.31816">
        <ele>266.54000469625</ele>
        <time>2020-11-29T14:24:53Z</time>
      </trkpt>
      <trkpt lat="43.53637" lon="2.31815">
        <ele>267.44756721632</ele>
        <time>2020-11-29T14:25:05Z</time>
      </trkpt>
      <trkpt lat="43.53644" lon="2.31816">
        <ele>268.5390256608</ele>
        <time>2020-11-29T14:25:12Z</time>
      </trkpt>
      <trkpt lat="43.53653" lon="2.31818">
        <ele>268.4168814894</ele>
        <time>2020-11-29T14:25:19Z</time>
      </trkpt>
      <trkpt lat="43.53661" lon="2.31822">
        <ele>269.42882239208</ele>
        <time>2020-11-29T14:25:27Z</time>
      </trkpt>
      <trkpt lat="43.53669" lon="2.31825">
        <ele>267.42463175175</ele>
        <time>2020-11-29T14:25:34Z</time>
      </trkpt>
      <trkpt lat="43.53677" lon="2.31825">
        <ele>266.98627755694</ele>
        <time>2020-11-29T14:25:39Z</time>
      </trkpt>
      <trkpt lat="43.53685" lon="2.31825">
        <ele>269.06936372064</ele>
        <time>2020-11-29T14:25:45Z</time>
      </trkpt>
      <trkpt lat="43.53694" lon="2.31826">
        <ele>271.81895018741</ele>
        <time>2020-11-29T14:25:54Z</time>
      </trkpt>
      <trkpt lat="43.53702" lon="2.31826">
        <ele>274.50917050064</ele>
        <time>2020-11-29T14:26:03Z</time>
      </trkpt>
      <trkpt lat="43.5371" lon="2.31828">
        <ele>275.12584962696</ele>
        <time>2020-11-29T14:26:11Z</time>
      </trkpt>
      <trkpt lat="43.53718" lon="2.31827">
        <ele>274.02267949969</ele>
        <time>2020-11-29T14:26:19Z</time>
      </trkpt>
      <trkpt lat="43.53727" lon="2.31828">
        <ele>272.1161184331</ele>
        <time>2020-11-29T14:26:24Z</time>
      </trkpt>
      <trkpt lat="43.53735" lon="2.31831">
        <ele>270.51649831587</ele>
        <time>2020-11-29T14:26:29Z</time>
      </trkpt>
      <trkpt lat="43.53743" lon="2.31835">
        <ele>270.77172898746</ele>
        <time>2020-11-29T14:26:35Z</time>
      </trkpt>
      <trkpt lat="43.53751" lon="2.31836">
        <ele>270.19977662496</ele>
        <time>2020-11-29T14:26:42Z</time>
      </trkpt>
      <trkpt lat="43.53757" lon="2.31845">
        <ele>267.83418778077</ele>
        <time>2020-11-29T14:27:03Z</time>
      </trkpt>
      <trkpt lat="43.53753" lon="2.31855">
        <ele>268.04434076149</ele>
        <time>2020-11-29T14:27:13Z</time>
      </trkpt>
      <trkpt lat="43.53754" lon="2.31866">
        <ele>269.95802111992</ele>
        <time>2020-11-29T14:27:23Z</time>
      </trkpt>
      <trkpt lat="43.53758" lon="2.31877">
        <ele>269.06738939443</ele>
        <time>2020-11-29T14:27:30Z</time>
      </trkpt>
      <trkpt lat="43.5376" lon="2.31887">
        <ele>267.79803688895</ele>
        <time>2020-11-29T14:27:36Z</time>
      </trkpt>
      <trkpt lat="43.53763" lon="2.31899">
        <ele>267.70073838844</ele>
        <time>2020-11-29T14:27:41Z</time>
      </trkpt>
      <trkpt lat="43.53764" lon="2.3191">
        <ele>266.17242238275</ele>
        <time>2020-11-29T14:27:48Z</time>
      </trkpt>
      <trkpt lat="43.53763" lon="2.31922">
        <ele>266.44557530914</ele>
        <time>2020-11-29T14:27:56Z</time>
      </trkpt>
      <trkpt lat="43.53762" lon="2.31933">
        <ele>264.79803665996</ele>
        <time>2020-11-29T14:28:03Z</time>
      </trkpt>
      <trkpt lat="43.5376" lon="2.31944">
        <ele>264.90267195055</ele>
        <time>2020-11-29T14:28:10Z</time>
      </trkpt>
      <trkpt lat="43.53763" lon="2.31955">
        <ele>266.09238452182</ele>
        <time>2020-11-29T14:28:16Z</time>
      </trkpt>
      <trkpt lat="43.53762" lon="2.31966">
        <ele>266.27576197832</ele>
        <time>2020-11-29T14:28:23Z</time>
      </trkpt>
      <trkpt lat="43.53764" lon="2.31978">
        <ele>266.09242130262</ele>
        <time>2020-11-29T14:28:30Z</time>
      </trkpt>
      <trkpt lat="43.53766" lon="2.3199">
        <ele>267.18400603573</ele>
        <time>2020-11-29T14:28:37Z</time>
      </trkpt>
      <trkpt lat="43.53766" lon="2.32">
        <ele>266.41871978375</ele>
        <time>2020-11-29T14:28:42Z</time>
      </trkpt>
      <trkpt lat="43.53768" lon="2.32011">
        <ele>265.35103187431</ele>
        <time>2020-11-29T14:28:48Z</time>
      </trkpt>
      <trkpt lat="43.53769" lon="2.32023">
        <ele>264.49641127801</ele>
        <time>2020-11-29T14:28:54Z</time>
      </trkpt>
      <trkpt lat="43.53772" lon="2.32033">
        <ele>264.60333777486</ele>
        <time>2020-11-29T14:29:00Z</time>
      </trkpt>
      <trkpt lat="43.53773" lon="2.32045">
        <ele>266.17710763273</ele>
        <time>2020-11-29T14:29:08Z</time>
      </trkpt>
      <trkpt lat="43.53772" lon="2.32056">
        <ele>266.91166012272</ele>
        <time>2020-11-29T14:29:14Z</time>
      </trkpt>
      <trkpt lat="43.53775" lon="2.32066">
        <ele>267.90932412553</ele>
        <time>2020-11-29T14:29:21Z</time>
      </trkpt>
      <trkpt lat="43.5378" lon="2.32076">
        <ele>269.64781384965</ele>
        <time>2020-11-29T14:29:28Z</time>
      </trkpt>
      <trkpt lat="43.53787" lon="2.32082">
        <ele>272.40618667302</ele>
        <time>2020-11-29T14:29:38Z</time>
      </trkpt>
      <trkpt lat="43.53791" lon="2.32092">
        <ele>273.30366780537</ele>
        <time>2020-11-29T14:29:46Z</time>
      </trkpt>
      <trkpt lat="43.53795" lon="2.32101">
        <ele>272.48659542778</ele>
        <time>2020-11-29T14:29:52Z</time>
      </trkpt>
      <trkpt lat="43.53802" lon="2.32109">
        <ele>271.74666484206</ele>
        <time>2020-11-29T14:29:59Z</time>
      </trkpt>
      <trkpt lat="43.53807" lon="2.32118">
        <ele>271.21221641229</ele>
        <time>2020-11-29T14:30:06Z</time>
      </trkpt>
      <trkpt lat="43.53813" lon="2.32127">
        <ele>271.77678202118</ele>
        <time>2020-11-29T14:30:13Z</time>
      </trkpt>
      <trkpt lat="43.53818" lon="2.32136">
        <ele>272.4065442672</ele>
        <time>2020-11-29T14:30:21Z</time>
      </trkpt>
      <trkpt lat="43.53822" lon="2.32147">
        <ele>271.628569322</ele>
        <time>2020-11-29T14:30:29Z</time>
      </trkpt>
      <trkpt lat="43.53828" lon="2.32156">
        <ele>271.34149024971</ele>
        <time>2020-11-29T14:30:37Z</time>
      </trkpt>
      <trkpt lat="43.53833" lon="2.32166">
        <ele>271.38715394882</ele>
        <time>2020-11-29T14:30:45Z</time>
      </trkpt>
      <trkpt lat="43.53838" lon="2.32173">
        <ele>272.32069832134</ele>
        <time>2020-11-29T14:30:51Z</time>
      </trkpt>
      <trkpt lat="43.53844" lon="2.32182">
        <ele>273.78599490229</ele>
        <time>2020-11-29T14:30:59Z</time>
      </trkpt>
      <trkpt lat="43.53849" lon="2.32192">
        <ele>275.27608548322</ele>
        <time>2020-11-29T14:31:08Z</time>
      </trkpt>
      <trkpt lat="43.53855" lon="2.32199">
        <ele>275.75421340015</ele>
        <time>2020-11-29T14:31:15Z</time>
      </trkpt>
      <trkpt lat="43.53862" lon="2.32206">
        <ele>275.94693397324</ele>
        <time>2020-11-29T14:31:26Z</time>
      </trkpt>
      <trkpt lat="43.53865" lon="2.32216">
        <ele>276.63557763196</ele>
        <time>2020-11-29T14:31:33Z</time>
      </trkpt>
      <trkpt lat="43.5387" lon="2.32225">
        <ele>278.7952331059</ele>
        <time>2020-11-29T14:31:40Z</time>
      </trkpt>
      <trkpt lat="43.53876" lon="2.32232">
        <ele>280.82197820548</ele>
        <time>2020-11-29T14:31:47Z</time>
      </trkpt>
      <trkpt lat="43.53882" lon="2.3224">
        <ele>282.24817185491</ele>
        <time>2020-11-29T14:31:55Z</time>
      </trkpt>
      <trkpt lat="43.53889" lon="2.32248">
        <ele>283.72443226389</ele>
        <time>2020-11-29T14:32:02Z</time>
      </trkpt>
      <trkpt lat="43.53895" lon="2.32255">
        <ele>281.0880938309</ele>
        <time>2020-11-29T14:32:26Z</time>
      </trkpt>
      <trkpt lat="43.53903" lon="2.32252">
        <ele>281.24925385161</ele>
        <time>2020-11-29T14:32:35Z</time>
      </trkpt>
      <trkpt lat="43.5391" lon="2.32246">
        <ele>280.43646929757</ele>
        <time>2020-11-29T14:32:44Z</time>
      </trkpt>
      <trkpt lat="43.53917" lon="2.32239">
        <ele>278.94549271135</ele>
        <time>2020-11-29T14:32:51Z</time>
      </trkpt>
      <trkpt lat="43.53924" lon="2.32233">
        <ele>279.47887864107</ele>
        <time>2020-11-29T14:33:00Z</time>
      </trkpt>
      <trkpt lat="43.53929" lon="2.32223">
        <ele>283.44843547442</ele>
        <time>2020-11-29T14:33:09Z</time>
      </trkpt>
      <trkpt lat="43.53935" lon="2.32216">
        <ele>286.26094084051</ele>
        <time>2020-11-29T14:33:16Z</time>
      </trkpt>
      <trkpt lat="43.53942" lon="2.32209">
        <ele>287.78242438727</ele>
        <time>2020-11-29T14:33:22Z</time>
      </trkpt>
      <trkpt lat="43.53948" lon="2.32201">
        <ele>287.95656167799</ele>
        <time>2020-11-29T14:33:31Z</time>
      </trkpt>
      <trkpt lat="43.53954" lon="2.32193">
        <ele>288.53474136432</ele>
        <time>2020-11-29T14:33:37Z</time>
      </trkpt>
      <trkpt lat="43.53958" lon="2.32184">
        <ele>287.67647854558</ele>
        <time>2020-11-29T14:33:43Z</time>
      </trkpt>
      <trkpt lat="43.53962" lon="2.32174">
        <ele>288.00391153955</ele>
        <time>2020-11-29T14:33:49Z</time>
      </trkpt>
      <trkpt lat="43.53968" lon="2.32164">
        <ele>287.24760197548</ele>
        <time>2020-11-29T14:33:57Z</time>
      </trkpt>
      <trkpt lat="43.53973" lon="2.32155">
        <ele>286.04466408483</ele>
        <time>2020-11-29T14:34:05Z</time>
      </trkpt>
      <trkpt lat="43.53978" lon="2.32146">
        <ele>288.26460187328</ele>
        <time>2020-11-29T14:34:12Z</time>
      </trkpt>
      <trkpt lat="43.53982" lon="2.32136">
        <ele>289.29726727597</ele>
        <time>2020-11-29T14:34:18Z</time>
      </trkpt>
      <trkpt lat="43.53989" lon="2.32128">
        <ele>283.76631466604</ele>
        <time>2020-11-29T14:34:39Z</time>
      </trkpt>
      <trkpt lat="43.53995" lon="2.3212">
        <ele>280.50941192882</ele>
        <time>2020-11-29T14:34:45Z</time>
      </trkpt>
      <trkpt lat="43.54001" lon="2.32111">
        <ele>274.24034158259</ele>
        <time>2020-11-29T14:35:03Z</time>
      </trkpt>
      <trkpt lat="43.54005" lon="2.32101">
        <ele>274.59192389908</ele>
        <time>2020-11-29T14:35:15Z</time>
      </trkpt>
      <trkpt lat="43.54013" lon="2.32097">
        <ele>274.27733440328</ele>
        <time>2020-11-29T14:35:22Z</time>
      </trkpt>
      <trkpt lat="43.54018" lon="2.32087">
        <ele>277.72223697729</ele>
        <time>2020-11-29T14:35:44Z</time>
      </trkpt>
      <trkpt lat="43.54023" lon="2.32079">
        <ele>278.67031425374</ele>
        <time>2020-11-29T14:35:54Z</time>
      </trkpt>
      <trkpt lat="43.54029" lon="2.3207">
        <ele>274.2760819798</ele>
        <time>2020-11-29T14:36:01Z</time>
      </trkpt>
      <trkpt lat="43.54029" lon="2.32058">
        <ele>268.0337085532</ele>
        <time>2020-11-29T14:36:33Z</time>
      </trkpt>
      <trkpt lat="43.5403" lon="2.32047">
        <ele>269.02274326036</ele>
        <time>2020-11-29T14:36:39Z</time>
      </trkpt>
      <trkpt lat="43.54032" lon="2.32035">
        <ele>270.21233030294</ele>
        <time>2020-11-29T14:36:47Z</time>
      </trkpt>
      <trkpt lat="43.54033" lon="2.32023">
        <ele>270.70352445323</ele>
        <time>2020-11-29T14:36:57Z</time>
      </trkpt>
      <trkpt lat="43.54037" lon="2.32013">
        <ele>267.6656222303</ele>
        <time>2020-11-29T14:37:07Z</time>
      </trkpt>
      <trkpt lat="43.54041" lon="2.32003">
        <ele>268.4373132889</ele>
        <time>2020-11-29T14:37:14Z</time>
      </trkpt>
      <trkpt lat="43.54044" lon="2.31991">
        <ele>269.37253632267</ele>
        <time>2020-11-29T14:37:21Z</time>
      </trkpt>
      <trkpt lat="43.54045" lon="2.31979">
        <ele>267.90248688813</ele>
        <time>2020-11-29T14:37:29Z</time>
      </trkpt>
      <trkpt lat="43.5404" lon="2.31969">
        <ele>267.31467904973</ele>
        <time>2020-11-29T14:37:37Z</time>
      </trkpt>
      <trkpt lat="43.54035" lon="2.3196">
        <ele>268.80872963501</ele>
        <time>2020-11-29T14:37:45Z</time>
      </trkpt>
      <trkpt lat="43.54028" lon="2.31953">
        <ele>267.90501803136</ele>
        <time>2020-11-29T14:37:52Z</time>
      </trkpt>
      <trkpt lat="43.54022" lon="2.31944">
        <ele>268.21851581868</ele>
        <time>2020-11-29T14:38:00Z</time>
      </trkpt>
      <trkpt lat="43.54018" lon="2.31934">
        <ele>269.78742554296</ele>
        <time>2020-11-29T14:38:11Z</time>
      </trkpt>
      <trkpt lat="43.54015" lon="2.31923">
        <ele>271.90891335796</ele>
        <time>2020-11-29T14:38:19Z</time>
      </trkpt>
      <trkpt lat="43.54012" lon="2.31912">
        <ele>272.79497740726</ele>
        <time>2020-11-29T14:38:56Z</time>
      </trkpt>
      <trkpt lat="43.54005" lon="2.31907">
        <ele>272.25399138001</ele>
        <time>2020-11-29T14:39:10Z</time>
      </trkpt>
      <trkpt lat="43.53996" lon="2.31903">
        <ele>272.1720573176</ele>
        <time>2020-11-29T14:39:15Z</time>
      </trkpt>
      <trkpt lat="43.53999" lon="2.31913">
        <ele>272.8710418221</ele>
        <time>2020-11-29T14:39:28Z</time>
      </trkpt>
      <trkpt lat="43.54002" lon="2.31924">
        <ele>270.04535188111</ele>
        <time>2020-11-29T14:39:33Z</time>
      </trkpt>
      <trkpt lat="43.54004" lon="2.31935">
        <ele>268.59200307236</ele>
        <time>2020-11-29T14:39:39Z</time>
      </trkpt>
      <trkpt lat="43.54011" lon="2.31941">
        <ele>268.39010274254</ele>
        <time>2020-11-29T14:41:11Z</time>
      </trkpt>
      <trkpt lat="43.54019" lon="2.31938">
        <ele>270.12812984465</ele>
        <time>2020-11-29T14:42:38Z</time>
      </trkpt>
      <trkpt lat="43.54024" lon="2.31929">
        <ele>269.01564670241</ele>
        <time>2020-11-29T14:43:40Z</time>
      </trkpt>
      <trkpt lat="43.54022" lon="2.31917">
        <ele>270.20165877747</ele>
        <time>2020-11-29T14:44:06Z</time>
      </trkpt>
      <trkpt lat="43.54024" lon="2.31906">
        <ele>270.65262799566</ele>
        <time>2020-11-29T14:44:19Z</time>
      </trkpt>
      <trkpt lat="43.54023" lon="2.31895">
        <ele>270.46540827663</ele>
        <time>2020-11-29T14:44:27Z</time>
      </trkpt>
      <trkpt lat="43.54023" lon="2.31883">
        <ele>271.10730460252</ele>
        <time>2020-11-29T14:44:34Z</time>
      </trkpt>
      <trkpt lat="43.5402" lon="2.31873">
        <ele>271.43990058718</ele>
        <time>2020-11-29T14:44:42Z</time>
      </trkpt>
      <trkpt lat="43.54018" lon="2.31862">
        <ele>270.20898132972</ele>
        <time>2020-11-29T14:44:48Z</time>
      </trkpt>
      <trkpt lat="43.54015" lon="2.3185">
        <ele>268.25837211119</ele>
        <time>2020-11-29T14:44:57Z</time>
      </trkpt>
      <trkpt lat="43.5401" lon="2.3184">
        <ele>264.92208145239</ele>
        <time>2020-11-29T14:45:05Z</time>
      </trkpt>
      <trkpt lat="43.54005" lon="2.3183">
        <ele>261.26852639243</ele>
        <time>2020-11-29T14:45:13Z</time>
      </trkpt>
      <trkpt lat="43.54001" lon="2.3182">
        <ele>259.57372602884</ele>
        <time>2020-11-29T14:45:21Z</time>
      </trkpt>
      <trkpt lat="43.53997" lon="2.3181">
        <ele>258.31018960201</ele>
        <time>2020-11-29T14:45:28Z</time>
      </trkpt>
      <trkpt lat="43.53991" lon="2.31802">
        <ele>255.80584584309</ele>
        <time>2020-11-29T14:45:34Z</time>
      </trkpt>
      <trkpt lat="43.53986" lon="2.31794">
        <ele>254.10600907581</ele>
        <time>2020-11-29T14:45:43Z</time>
      </trkpt>
      <trkpt lat="43.5398" lon="2.31785">
        <ele>253.62445926504</ele>
        <time>2020-11-29T14:45:51Z</time>
      </trkpt>
      <trkpt lat="43.53973" lon="2.31778">
        <ele>253.60465442843</ele>
        <time>2020-11-29T14:45:58Z</time>
      </trkpt>
      <trkpt lat="43.53968" lon="2.31769">
        <ele>253.00296767305</ele>
        <time>2020-11-29T14:46:05Z</time>
      </trkpt>
      <trkpt lat="43.5396" lon="2.31763">
        <ele>250.56773703742</ele>
        <time>2020-11-29T14:46:14Z</time>
      </trkpt>
      <trkpt lat="43.53953" lon="2.31757">
        <ele>250.70236213214</ele>
        <time>2020-11-29T14:46:25Z</time>
      </trkpt>
      <trkpt lat="43.53944" lon="2.31759">
        <ele>248.88287713678</ele>
        <time>2020-11-29T14:46:34Z</time>
      </trkpt>
      <trkpt lat="43.53938" lon="2.31765">
        <ele>248.51130349649</ele>
        <time>2020-11-29T14:46:38Z</time>
      </trkpt>
      <trkpt lat="43.53932" lon="2.31772">
        <ele>247.2252059798</ele>
        <time>2020-11-29T14:46:43Z</time>
      </trkpt>
      <trkpt lat="43.53926" lon="2.31779">
        <ele>245.62083231251</ele>
        <time>2020-11-29T14:46:49Z</time>
      </trkpt>
      <trkpt lat="43.53924" lon="2.31791">
        <ele>244.07885884445</ele>
        <time>2020-11-29T14:46:57Z</time>
      </trkpt>
      <trkpt lat="43.53924" lon="2.31802">
        <ele>244.69346613784</ele>
        <time>2020-11-29T14:47:07Z</time>
      </trkpt>
      <trkpt lat="43.53927" lon="2.31813">
        <ele>248.04539522739</ele>
        <time>2020-11-29T14:47:16Z</time>
      </trkpt>
      <trkpt lat="43.5393" lon="2.31825">
        <ele>250.88365791017</ele>
        <time>2020-11-29T14:47:26Z</time>
      </trkpt>
      <trkpt lat="43.53934" lon="2.31835">
        <ele>251.79464715155</ele>
        <time>2020-11-29T14:47:39Z</time>
      </trkpt>
      <trkpt lat="43.53939" lon="2.31844">
        <ele>250.87716904758</ele>
        <time>2020-11-29T14:47:57Z</time>
      </trkpt>
      <trkpt lat="43.53936" lon="2.31855">
        <ele>250.21493471488</ele>
        <time>2020-11-29T14:48:10Z</time>
      </trkpt>
      <trkpt lat="43.53929" lon="2.31862">
        <ele>249.61956860226</ele>
        <time>2020-11-29T14:48:17Z</time>
      </trkpt>
      <trkpt lat="43.53921" lon="2.31865">
        <ele>250.96597165757</ele>
        <time>2020-11-29T14:48:23Z</time>
      </trkpt>
      <trkpt lat="43.53913" lon="2.31867">
        <ele>252.25846174737</ele>
        <time>2020-11-29T14:48:30Z</time>
      </trkpt>
      <trkpt lat="43.53905" lon="2.31869">
        <ele>252.81376735904</ele>
        <time>2020-11-29T14:48:38Z</time>
      </trkpt>
      <trkpt lat="43.53897" lon="2.31865">
        <ele>256.734028514</ele>
        <time>2020-11-29T14:49:04Z</time>
      </trkpt>
      <trkpt lat="43.5389" lon="2.31857">
        <ele>256.02940411777</ele>
        <time>2020-11-29T14:49:14Z</time>
      </trkpt>
      <trkpt lat="43.53883" lon="2.3185">
        <ele>256.20127005884</ele>
        <time>2020-11-29T14:49:26Z</time>
      </trkpt>
      <trkpt lat="43.53878" lon="2.3184">
        <ele>257.5561048434</ele>
        <time>2020-11-29T14:49:39Z</time>
      </trkpt>
      <trkpt lat="43.53874" lon="2.3183">
        <ele>259.15818581678</ele>
        <time>2020-11-29T14:49:46Z</time>
      </trkpt>
      <trkpt lat="43.53873" lon="2.31818">
        <ele>261.66693566935</ele>
        <time>2020-11-29T14:49:55Z</time>
      </trkpt>
      <trkpt lat="43.53869" lon="2.31807">
        <ele>263.24838975562</ele>
        <time>2020-11-29T14:50:04Z</time>
      </trkpt>
      <trkpt lat="43.53865" lon="2.31797">
        <ele>263.41779426495</ele>
        <time>2020-11-29T14:50:12Z</time>
      </trkpt>
      <trkpt lat="43.53861" lon="2.31788">
        <ele>262.73125576499</ele>
        <time>2020-11-29T14:50:17Z</time>
      </trkpt>
      <trkpt lat="43.53856" lon="2.3178">
        <ele>262.43160347787</ele>
        <time>2020-11-29T14:50:22Z</time>
      </trkpt>
      <trkpt lat="43.53849" lon="2.31772">
        <ele>261.64448709605</ele>
        <time>2020-11-29T14:50:29Z</time>
      </trkpt>
      <trkpt lat="43.53844" lon="2.31763">
        <ele>260.79348117912</ele>
        <time>2020-11-29T14:50:36Z</time>
      </trkpt>
      <trkpt lat="43.53837" lon="2.31755">
        <ele>262.17633537038</ele>
        <time>2020-11-29T14:50:44Z</time>
      </trkpt>
      <trkpt lat="43.5383" lon="2.31749">
        <ele>262.13161045502</ele>
        <time>2020-11-29T14:50:50Z</time>
      </trkpt>
      <trkpt lat="43.53824" lon="2.3174">
        <ele>262.5333229522</ele>
        <time>2020-11-29T14:50:56Z</time>
      </trkpt>
      <trkpt lat="43.53819" lon="2.31733">
        <ele>262.5146556699</ele>
        <time>2020-11-29T14:51:02Z</time>
      </trkpt>
      <trkpt lat="43.53813" lon="2.31724">
        <ele>262.84146371857</ele>
        <time>2020-11-29T14:51:09Z</time>
      </trkpt>
      <trkpt lat="43.53811" lon="2.31713">
        <ele>265.50563745272</ele>
        <time>2020-11-29T14:51:27Z</time>
      </trkpt>
      <trkpt lat="43.53803" lon="2.31708">
        <ele>264.22878521192</ele>
        <time>2020-11-29T14:51:34Z</time>
      </trkpt>
      <trkpt lat="43.53796" lon="2.31701">
        <ele>263.52352319352</ele>
        <time>2020-11-29T14:51:39Z</time>
      </trkpt>
      <trkpt lat="43.5379" lon="2.31693">
        <ele>262.48759464884</ele>
        <time>2020-11-29T14:51:46Z</time>
      </trkpt>
      <trkpt lat="43.53784" lon="2.31686">
        <ele>262.15005184074</ele>
        <time>2020-11-29T14:51:54Z</time>
      </trkpt>
      <trkpt lat="43.53778" lon="2.31677">
        <ele>263.48353553462</ele>
        <time>2020-11-29T14:52:04Z</time>
      </trkpt>
      <trkpt lat="43.53771" lon="2.3167">
        <ele>263.022586532</ele>
        <time>2020-11-29T14:52:11Z</time>
      </trkpt>
      <trkpt lat="43.53764" lon="2.31663">
        <ele>263.75105041711</ele>
        <time>2020-11-29T14:52:19Z</time>
      </trkpt>
      <trkpt lat="43.53756" lon="2.31657">
        <ele>263.25936486891</ele>
        <time>2020-11-29T14:52:28Z</time>
      </trkpt>
      <trkpt lat="43.53748" lon="2.31653">
        <ele>260.96439008287</ele>
        <time>2020-11-29T14:52:50Z</time>
      </trkpt>
      <trkpt lat="43.53741" lon="2.31646">
        <ele>260.68803139491</ele>
        <time>2020-11-29T14:53:00Z</time>
      </trkpt>
      <trkpt lat="43.53735" lon="2.31638">
        <ele>259.68790214643</ele>
        <time>2020-11-29T14:53:08Z</time>
      </trkpt>
      <trkpt lat="43.53734" lon="2.31626">
        <ele>263.60998617254</ele>
        <time>2020-11-29T14:53:17Z</time>
      </trkpt>
      <trkpt lat="43.53734" lon="2.31614">
        <ele>267.27483910138</ele>
        <time>2020-11-29T14:53:27Z</time>
      </trkpt>
      <trkpt lat="43.53735" lon="2.31602">
        <ele>265.66574432146</ele>
        <time>2020-11-29T14:53:33Z</time>
      </trkpt>
      <trkpt lat="43.53734" lon="2.31591">
        <ele>264.07559363248</ele>
        <time>2020-11-29T14:53:40Z</time>
      </trkpt>
      <trkpt lat="43.53732" lon="2.31581">
        <ele>262.06063670358</ele>
        <time>2020-11-29T14:53:45Z</time>
      </trkpt>
      <trkpt lat="43.53729" lon="2.3157">
        <ele>260.6610346934</ele>
        <time>2020-11-29T14:53:53Z</time>
      </trkpt>
      <trkpt lat="43.5373" lon="2.31558">
        <ele>256.49786969813</ele>
        <time>2020-11-29T14:54:10Z</time>
      </trkpt>
      <trkpt lat="43.53732" lon="2.31547">
        <ele>256.75266816224</ele>
        <time>2020-11-29T14:54:20Z</time>
      </trkpt>
      <trkpt lat="43.53728" lon="2.31537">
        <ele>257.68221722413</ele>
        <time>2020-11-29T14:54:27Z</time>
      </trkpt>
      <trkpt lat="43.53728" lon="2.31525">
        <ele>257.71282939751</ele>
        <time>2020-11-29T14:54:35Z</time>
      </trkpt>
      <trkpt lat="43.53724" lon="2.31515">
        <ele>255.11756399681</ele>
        <time>2020-11-29T14:54:44Z</time>
      </trkpt>
      <trkpt lat="43.5372" lon="2.31505">
        <ele>255.02199238417</ele>
        <time>2020-11-29T14:54:51Z</time>
      </trkpt>
      <trkpt lat="43.53715" lon="2.31495">
        <ele>256.52046646693</ele>
        <time>2020-11-29T14:54:58Z</time>
      </trkpt>
      <trkpt lat="43.53713" lon="2.31483">
        <ele>255.92218116984</ele>
        <time>2020-11-29T14:55:08Z</time>
      </trkpt>
      <trkpt lat="43.53707" lon="2.31474">
        <ele>254.28038274257</ele>
        <time>2020-11-29T14:55:17Z</time>
      </trkpt>
      <trkpt lat="43.53702" lon="2.31466">
        <ele>253.24362755148</ele>
        <time>2020-11-29T14:55:24Z</time>
      </trkpt>
      <trkpt lat="43.53696" lon="2.31458">
        <ele>252.83107327242</ele>
        <time>2020-11-29T14:55:30Z</time>
      </trkpt>
      <trkpt lat="43.5369" lon="2.31448">
        <ele>252.25450852771</ele>
        <time>2020-11-29T14:55:37Z</time>
      </trkpt>
      <trkpt lat="43.53686" lon="2.31439">
        <ele>251.56683433737</ele>
        <time>2020-11-29T14:55:44Z</time>
      </trkpt>
      <trkpt lat="43.53681" lon="2.31428">
        <ele>250.89115704522</ele>
        <time>2020-11-29T14:55:53Z</time>
      </trkpt>
      <trkpt lat="43.53676" lon="2.31419">
        <ele>251.4040772309</ele>
        <time>2020-11-29T14:56:05Z</time>
      </trkpt>
      <trkpt lat="43.53671" lon="2.3141">
        <ele>251.31027264444</ele>
        <time>2020-11-29T14:56:12Z</time>
      </trkpt>
      <trkpt lat="43.53664" lon="2.31403">
        <ele>251.55625867403</ele>
        <time>2020-11-29T14:56:19Z</time>
      </trkpt>
      <trkpt lat="43.53656" lon="2.31397">
        <ele>251.32422330908</ele>
        <time>2020-11-29T14:56:28Z</time>
      </trkpt>
      <trkpt lat="43.53648" lon="2.31393">
        <ele>252.10336670674</ele>
        <time>2020-11-29T14:56:39Z</time>
      </trkpt>
      <trkpt lat="43.5364" lon="2.31389">
        <ele>251.69459713453</ele>
        <time>2020-11-29T14:56:46Z</time>
      </trkpt>
      <trkpt lat="43.53632" lon="2.31386">
        <ele>250.78808051744</ele>
        <time>2020-11-29T14:56:54Z</time>
      </trkpt>
      <trkpt lat="43.53625" lon="2.31381">
        <ele>250.66039446637</ele>
        <time>2020-11-29T14:57:06Z</time>
      </trkpt>
      <trkpt lat="43.53619" lon="2.31371">
        <ele>250.01835975293</ele>
        <time>2020-11-29T14:57:14Z</time>
      </trkpt>
      <trkpt lat="43.53615" lon="2.31362">
        <ele>250.30705459933</ele>
        <time>2020-11-29T14:57:23Z</time>
      </trkpt>
      <trkpt lat="43.53614" lon="2.3135">
        <ele>250.16979348907</ele>
        <time>2020-11-29T14:57:37Z</time>
      </trkpt>
      <trkpt lat="43.53612" lon="2.31338">
        <ele>249.36343063343</ele>
        <time>2020-11-29T14:57:46Z</time>
      </trkpt>
      <trkpt lat="43.53608" lon="2.31327">
        <ele>249.50103434929</ele>
        <time>2020-11-29T14:57:53Z</time>
      </trkpt>
      <trkpt lat="43.53604" lon="2.31319">
        <ele>250.06843455531</ele>
        <time>2020-11-29T14:57:59Z</time>
      </trkpt>
      <trkpt lat="43.536" lon="2.31309">
        <ele>249.274963508</ele>
        <time>2020-11-29T14:58:06Z</time>
      </trkpt>
      <trkpt lat="43.53595" lon="2.31298">
        <ele>249.25384918647</ele>
        <time>2020-11-29T14:58:14Z</time>
      </trkpt>
      <trkpt lat="43.5359" lon="2.31289">
        <ele>250.62493190968</ele>
        <time>2020-11-29T14:58:24Z</time>
      </trkpt>
      <trkpt lat="43.53585" lon="2.31279">
        <ele>250.89152098999</ele>
        <time>2020-11-29T14:58:32Z</time>
      </trkpt>
      <trkpt lat="43.5358" lon="2.3127">
        <ele>250.04818350834</ele>
        <time>2020-11-29T14:58:40Z</time>
      </trkpt>
      <trkpt lat="43.53576" lon="2.3126">
        <ele>248.74729715749</ele>
        <time>2020-11-29T14:58:48Z</time>
      </trkpt>
      <trkpt lat="43.53571" lon="2.3125">
        <ele>247.26448543587</ele>
        <time>2020-11-29T14:58:56Z</time>
      </trkpt>
      <trkpt lat="43.53568" lon="2.3124">
        <ele>247.46775844884</ele>
        <time>2020-11-29T14:59:04Z</time>
      </trkpt>
      <trkpt lat="43.53565" lon="2.31229">
        <ele>247.56763332565</ele>
        <time>2020-11-29T14:59:12Z</time>
      </trkpt>
      <trkpt lat="43.53562" lon="2.31217">
        <ele>247.23172286848</ele>
        <time>2020-11-29T14:59:21Z</time>
      </trkpt>
      <trkpt lat="43.53559" lon="2.31206">
        <ele>247.09622363796</ele>
        <time>2020-11-29T14:59:30Z</time>
      </trkpt>
      <trkpt lat="43.53556" lon="2.31196">
        <ele>245.88958825506</ele>
        <time>2020-11-29T14:59:38Z</time>
      </trkpt>
      <trkpt lat="43.53553" lon="2.31185">
        <ele>245.02954028849</ele>
        <time>2020-11-29T14:59:46Z</time>
      </trkpt>
      <trkpt lat="43.5355" lon="2.31175">
        <ele>244.31804340817</ele>
        <time>2020-11-29T14:59:51Z</time>
      </trkpt>
      <trkpt lat="43.53548" lon="2.31164">
        <ele>244.82749036932</ele>
        <time>2020-11-29T15:00:04Z</time>
      </trkpt>
      <trkpt lat="43.53547" lon="2.31152">
        <ele>243.84895630426</ele>
        <time>2020-11-29T15:00:13Z</time>
      </trkpt>
      <trkpt lat="43.53544" lon="2.31142">
        <ele>242.9853775674</ele>
        <time>2020-11-29T15:00:21Z</time>
      </trkpt>
      <trkpt lat="43.5354" lon="2.31131">
        <ele>242.18668436245</ele>
        <time>2020-11-29T15:00:29Z</time>
      </trkpt>
      <trkpt lat="43.53537" lon="2.3112">
        <ele>242.28607756071</ele>
        <time>2020-11-29T15:00:36Z</time>
      </trkpt>
      <trkpt lat="43.53535" lon="2.31109">
        <ele>242.8507347824</ele>
        <time>2020-11-29T15:00:44Z</time>
      </trkpt>
      <trkpt lat="43.53534" lon="2.31097">
        <ele>241.60231616846</ele>
        <time>2020-11-29T15:00:54Z</time>
      </trkpt>
      <trkpt lat="43.53532" lon="2.31086">
        <ele>242.55817478404</ele>
        <time>2020-11-29T15:01:06Z</time>
      </trkpt>
      <trkpt lat="43.53528" lon="2.31075">
        <ele>243.02711572456</ele>
        <time>2020-11-29T15:01:14Z</time>
      </trkpt>
      <trkpt lat="43.53525" lon="2.31064">
        <ele>244.23419305444</ele>
        <time>2020-11-29T15:01:21Z</time>
      </trkpt>
      <trkpt lat="43.53524" lon="2.31052">
        <ele>243.25989261275</ele>
        <time>2020-11-29T15:01:31Z</time>
      </trkpt>
      <trkpt lat="43.53522" lon="2.3104">
        <ele>242.54013406957</ele>
        <time>2020-11-29T15:01:42Z</time>
      </trkpt>
      <trkpt lat="43.53522" lon="2.31028">
        <ele>241.53521776783</ele>
        <time>2020-11-29T15:01:49Z</time>
      </trkpt>
      <trkpt lat="43.53519" lon="2.31018">
        <ele>241.36859918662</ele>
        <time>2020-11-29T15:01:56Z</time>
      </trkpt>
      <trkpt lat="43.53517" lon="2.31007">
        <ele>242.08539477971</ele>
        <time>2020-11-29T15:02:03Z</time>
      </trkpt>
      <trkpt lat="43.53513" lon="2.30996">
        <ele>243.28960345525</ele>
        <time>2020-11-29T15:02:13Z</time>
      </trkpt>
      <trkpt lat="43.53512" lon="2.30985">
        <ele>243.31736110668</ele>
        <time>2020-11-29T15:02:21Z</time>
      </trkpt>
      <trkpt lat="43.53511" lon="2.30973">
        <ele>242.2162850096</ele>
        <time>2020-11-29T15:02:29Z</time>
      </trkpt>
      <trkpt lat="43.53508" lon="2.30962">
        <ele>241.49992890443</ele>
        <time>2020-11-29T15:02:37Z</time>
      </trkpt>
      <trkpt lat="43.53504" lon="2.30953">
        <ele>240.35691727347</ele>
        <time>2020-11-29T15:02:45Z</time>
      </trkpt>
      <trkpt lat="43.53501" lon="2.30943">
        <ele>239.74561817982</ele>
        <time>2020-11-29T15:02:52Z</time>
      </trkpt>
      <trkpt lat="43.53496" lon="2.30933">
        <ele>239.33358936127</ele>
        <time>2020-11-29T15:03:02Z</time>
      </trkpt>
      <trkpt lat="43.53492" lon="2.30923">
        <ele>238.55991486246</ele>
        <time>2020-11-29T15:03:23Z</time>
      </trkpt>
      <trkpt lat="43.53488" lon="2.30913">
        <ele>237.75062918371</ele>
        <time>2020-11-29T15:03:31Z</time>
      </trkpt>
      <trkpt lat="43.53485" lon="2.30903">
        <ele>237.4224588617</ele>
        <time>2020-11-29T15:03:39Z</time>
      </trkpt>
      <trkpt lat="43.53484" lon="2.30891">
        <ele>237.59605507108</ele>
        <time>2020-11-29T15:03:48Z</time>
      </trkpt>
      <trkpt lat="43.53483" lon="2.3088">
        <ele>239.29667779544</ele>
        <time>2020-11-29T15:03:56Z</time>
      </trkpt>
      <trkpt lat="43.53483" lon="2.30868">
        <ele>238.56971200562</ele>
        <time>2020-11-29T15:04:09Z</time>
      </trkpt>
      <trkpt lat="43.53489" lon="2.30859">
        <ele>237.64460294553</ele>
        <time>2020-11-29T15:04:56Z</time>
      </trkpt>
      <trkpt lat="43.53497" lon="2.30858">
        <ele>237.49926979828</ele>
        <time>2020-11-29T15:05:08Z</time>
      </trkpt>
      <trkpt lat="43.53505" lon="2.30857">
        <ele>236.1628227034</ele>
        <time>2020-11-29T15:05:17Z</time>
      </trkpt>
      <trkpt lat="43.53514" lon="2.30857">
        <ele>236.35617655029</ele>
        <time>2020-11-29T15:05:25Z</time>
      </trkpt>
      <trkpt lat="43.53522" lon="2.30859">
        <ele>236.38458677852</ele>
        <time>2020-11-29T15:05:34Z</time>
      </trkpt>
      <trkpt lat="43.5353" lon="2.30862">
        <ele>235.73290877494</ele>
        <time>2020-11-29T15:05:44Z</time>
      </trkpt>
      <trkpt lat="43.53538" lon="2.30861">
        <ele>236.78857385961</ele>
        <time>2020-11-29T15:05:51Z</time>
      </trkpt>
      <trkpt lat="43.53546" lon="2.30858">
        <ele>237.1106438906</ele>
        <time>2020-11-29T15:05:59Z</time>
      </trkpt>
      <trkpt lat="43.53555" lon="2.30855">
        <ele>236.72849249332</ele>
        <time>2020-11-29T15:06:07Z</time>
      </trkpt>
      <trkpt lat="43.53563" lon="2.30853">
        <ele>236.17113769907</ele>
        <time>2020-11-29T15:06:14Z</time>
      </trkpt>
      <trkpt lat="43.53571" lon="2.30851">
        <ele>234.84825829873</ele>
        <time>2020-11-29T15:06:22Z</time>
      </trkpt>
      <trkpt lat="43.5358" lon="2.30851">
        <ele>234.89788499544</ele>
        <time>2020-11-29T15:06:31Z</time>
      </trkpt>
      <trkpt lat="43.53589" lon="2.3085">
        <ele>234.08143276557</ele>
        <time>2020-11-29T15:06:40Z</time>
      </trkpt>
      <trkpt lat="43.53597" lon="2.30851">
        <ele>233.58673940753</ele>
        <time>2020-11-29T15:06:48Z</time>
      </trkpt>
      <trkpt lat="43.53602" lon="2.30841">
        <ele>235.58800795659</ele>
        <time>2020-11-29T15:06:59Z</time>
      </trkpt>
      <trkpt lat="43.53601" lon="2.3083">
        <ele>236.49945318529</ele>
        <time>2020-11-29T15:07:07Z</time>
      </trkpt>
      <trkpt lat="43.53595" lon="2.30822">
        <ele>233.92758926608</ele>
        <time>2020-11-29T15:07:19Z</time>
      </trkpt>
      <trkpt lat="43.53588" lon="2.30816">
        <ele>232.8248680614</ele>
        <time>2020-11-29T15:07:26Z</time>
      </trkpt>
      <trkpt lat="43.53581" lon="2.30809">
        <ele>231.91828085376</ele>
        <time>2020-11-29T15:07:32Z</time>
      </trkpt>
      <trkpt lat="43.53575" lon="2.30802">
        <ele>230.33433016187</ele>
        <time>2020-11-29T15:07:39Z</time>
      </trkpt>
      <trkpt lat="43.53566" lon="2.30801">
        <ele>229.76966118153</ele>
        <time>2020-11-29T15:07:46Z</time>
      </trkpt>
      <trkpt lat="43.53558" lon="2.308">
        <ele>228.13828007164</ele>
        <time>2020-11-29T15:07:57Z</time>
      </trkpt>
      <trkpt lat="43.5355" lon="2.30803">
        <ele>228.16756136812</ele>
        <time>2020-11-29T15:08:07Z</time>
      </trkpt>
      <trkpt lat="43.53542" lon="2.30804">
        <ele>228.08371266224</ele>
        <time>2020-11-29T15:08:13Z</time>
      </trkpt>
      <trkpt lat="43.53534" lon="2.30805">
        <ele>228.15408035939</ele>
        <time>2020-11-29T15:08:22Z</time>
      </trkpt>
      <trkpt lat="43.53526" lon="2.30803">
        <ele>226.07242597105</ele>
        <time>2020-11-29T15:09:20Z</time>
      </trkpt>
      <trkpt lat="43.5352" lon="2.30795">
        <ele>226.64254602256</ele>
        <time>2020-11-29T15:09:28Z</time>
      </trkpt>
      <trkpt lat="43.53512" lon="2.30792">
        <ele>224.60617321632</ele>
        <time>2020-11-29T15:09:38Z</time>
      </trkpt>
      <trkpt lat="43.53504" lon="2.3079">
        <ele>223.78753168895</ele>
        <time>2020-11-29T15:09:46Z</time>
      </trkpt>
      <trkpt lat="43.53496" lon="2.30789">
        <ele>222.82007632088</ele>
        <time>2020-11-29T15:09:53Z</time>
      </trkpt>
      <trkpt lat="43.53487" lon="2.30786">
        <ele>222.63832649939</ele>
        <time>2020-11-29T15:10:01Z</time>
      </trkpt>
      <trkpt lat="43.5348" lon="2.30783">
        <ele>222.56819719438</ele>
        <time>2020-11-29T15:10:08Z</time>
      </trkpt>
      <trkpt lat="43.53471" lon="2.30783">
        <ele>220.2972107533</ele>
        <time>2020-11-29T15:10:16Z</time>
      </trkpt>
      <trkpt lat="43.53463" lon="2.30782">
        <ele>220.12814978814</ele>
        <time>2020-11-29T15:10:23Z</time>
      </trkpt>
      <trkpt lat="43.53454" lon="2.30781">
        <ele>218.57705837881</ele>
        <time>2020-11-29T15:10:32Z</time>
      </trkpt>
      <trkpt lat="43.53446" lon="2.3078">
        <ele>217.6981177389</ele>
        <time>2020-11-29T15:10:41Z</time>
      </trkpt>
      <trkpt lat="43.53437" lon="2.3078">
        <ele>216.57531690979</ele>
        <time>2020-11-29T15:10:52Z</time>
      </trkpt>
      <trkpt lat="43.53429" lon="2.3078">
        <ele>216.11818821471</ele>
        <time>2020-11-29T15:10:59Z</time>
      </trkpt>
      <trkpt lat="43.53421" lon="2.30775">
        <ele>213.92792140008</ele>
        <time>2020-11-29T15:11:08Z</time>
      </trkpt>
      <trkpt lat="43.53415" lon="2.30768">
        <ele>211.65456354871</ele>
        <time>2020-11-29T15:11:15Z</time>
      </trkpt>
      <trkpt lat="43.53408" lon="2.30761">
        <ele>209.50911039118</ele>
        <time>2020-11-29T15:11:22Z</time>
      </trkpt>
      <trkpt lat="43.53401" lon="2.30754">
        <ele>207.80029911738</ele>
        <time>2020-11-29T15:11:30Z</time>
      </trkpt>
      <trkpt lat="43.53397" lon="2.30744">
        <ele>206.9904757121</ele>
        <time>2020-11-29T15:11:38Z</time>
      </trkpt>
      <trkpt lat="43.53391" lon="2.30735">
        <ele>205.11741449608</ele>
        <time>2020-11-29T15:11:46Z</time>
      </trkpt>
      <trkpt lat="43.53386" lon="2.30726">
        <ele>204.64046547568</ele>
        <time>2020-11-29T15:11:53Z</time>
      </trkpt>
      <trkpt lat="43.53381" lon="2.30717">
        <ele>205.21332580134</ele>
        <time>2020-11-29T15:12:01Z</time>
      </trkpt>
      <trkpt lat="43.53375" lon="2.30709">
        <ele>207.09756369546</ele>
        <time>2020-11-29T15:12:10Z</time>
      </trkpt>
      <trkpt lat="43.5337" lon="2.307">
        <ele>207.21574256146</ele>
        <time>2020-11-29T15:12:17Z</time>
      </trkpt>
      <trkpt lat="43.53364" lon="2.30692">
        <ele>206.89242683805</ele>
        <time>2020-11-29T15:12:24Z</time>
      </trkpt>
      <trkpt lat="43.53358" lon="2.30683">
        <ele>206.69204371255</ele>
        <time>2020-11-29T15:12:31Z</time>
      </trkpt>
      <trkpt lat="43.53353" lon="2.30675">
        <ele>206.32452819245</ele>
        <time>2020-11-29T15:12:37Z</time>
      </trkpt>
      <trkpt lat="43.5335" lon="2.30665">
        <ele>204.73225443319</ele>
        <time>2020-11-29T15:12:44Z</time>
      </trkpt>
      <trkpt lat="43.53346" lon="2.30655">
        <ele>203.41804791454</ele>
        <time>2020-11-29T15:12:51Z</time>
      </trkpt>
      <trkpt lat="43.53341" lon="2.30645">
        <ele>201.97500259748</ele>
        <time>2020-11-29T15:12:58Z</time>
      </trkpt>
      <trkpt lat="43.53336" lon="2.30635">
        <ele>202.34823954342</ele>
        <time>2020-11-29T15:13:06Z</time>
      </trkpt>
      <trkpt lat="43.53331" lon="2.30626">
        <ele>203.23575751072</ele>
        <time>2020-11-29T15:13:13Z</time>
      </trkpt>
      <trkpt lat="43.53329" lon="2.30615">
        <ele>203.61134832124</ele>
        <time>2020-11-29T15:13:23Z</time>
      </trkpt>
      <trkpt lat="43.53326" lon="2.30605">
        <ele>205.07650036748</ele>
        <time>2020-11-29T15:13:34Z</time>
      </trkpt>
      <trkpt lat="43.53326" lon="2.30593">
        <ele>205.01152398765</ele>
        <time>2020-11-29T15:13:40Z</time>
      </trkpt>
      <trkpt lat="43.53324" lon="2.30582">
        <ele>204.6694520021</ele>
        <time>2020-11-29T15:13:47Z</time>
      </trkpt>
      <trkpt lat="43.53322" lon="2.30571">
        <ele>204.44944892502</ele>
        <time>2020-11-29T15:13:55Z</time>
      </trkpt>
      <trkpt lat="43.53319" lon="2.30559">
        <ele>205.87528244705</ele>
        <time>2020-11-29T15:14:03Z</time>
      </trkpt>
      <trkpt lat="43.53317" lon="2.30549">
        <ele>205.96261751361</ele>
        <time>2020-11-29T15:14:09Z</time>
      </trkpt>
      <trkpt lat="43.53316" lon="2.30538">
        <ele>204.6225731342</ele>
        <time>2020-11-29T15:14:16Z</time>
      </trkpt>
      <trkpt lat="43.53314" lon="2.30526">
        <ele>204.86026468221</ele>
        <time>2020-11-29T15:14:24Z</time>
      </trkpt>
      <trkpt lat="43.53307" lon="2.30518">
        <ele>205.22354786878</ele>
        <time>2020-11-29T15:14:32Z</time>
      </trkpt>
      <trkpt lat="43.53302" lon="2.3051">
        <ele>203.28438050045</ele>
        <time>2020-11-29T15:14:40Z</time>
      </trkpt>
      <trkpt lat="43.53297" lon="2.305">
        <ele>202.71049946467</ele>
        <time>2020-11-29T15:14:48Z</time>
      </trkpt>
      <trkpt lat="43.53293" lon="2.3049">
        <ele>201.83278532749</ele>
        <time>2020-11-29T15:14:56Z</time>
      </trkpt>
      <trkpt lat="43.53291" lon="2.30479">
        <ele>200.24081309172</ele>
        <time>2020-11-29T15:15:02Z</time>
      </trkpt>
      <trkpt lat="43.53287" lon="2.30468">
        <ele>197.69906067052</ele>
        <time>2020-11-29T15:15:10Z</time>
      </trkpt>
      <trkpt lat="43.53282" lon="2.3046">
        <ele>196.98259151278</ele>
        <time>2020-11-29T15:15:18Z</time>
      </trkpt>
      <trkpt lat="43.53273" lon="2.30456">
        <ele>196.86539755859</ele>
        <time>2020-11-29T15:15:26Z</time>
      </trkpt>
      <trkpt lat="43.53265" lon="2.30454">
        <ele>197.59399345237</ele>
        <time>2020-11-29T15:15:33Z</time>
      </trkpt>
      <trkpt lat="43.53258" lon="2.30447">
        <ele>199.03834599296</ele>
        <time>2020-11-29T15:15:41Z</time>
      </trkpt>
      <trkpt lat="43.53252" lon="2.3044">
        <ele>201.32272433275</ele>
        <time>2020-11-29T15:15:50Z</time>
      </trkpt>
      <trkpt lat="43.53246" lon="2.30436">
        <ele>201.42644242168</ele>
        <time>2020-11-29T15:15:56Z</time>
      </trkpt>
      <trkpt lat="43.53237" lon="2.30439">
        <ele>202.04181187586</ele>
        <time>2020-11-29T15:16:01Z</time>
      </trkpt>
      <trkpt lat="43.5323" lon="2.30433">
        <ele>202.41629296944</ele>
        <time>2020-11-29T15:16:09Z</time>
      </trkpt>
      <trkpt lat="43.53224" lon="2.30425">
        <ele>202.04872780601</ele>
        <time>2020-11-29T15:16:17Z</time>
      </trkpt>
      <trkpt lat="43.53215" lon="2.30425">
        <ele>202.15827635015</ele>
        <time>2020-11-29T15:16:24Z</time>
      </trkpt>
      <trkpt lat="43.53207" lon="2.3042">
        <ele>201.33120286206</ele>
        <time>2020-11-29T15:16:35Z</time>
      </trkpt>
      <trkpt lat="43.53199" lon="2.30419">
        <ele>201.88518496259</ele>
        <time>2020-11-29T15:16:44Z</time>
      </trkpt>
      <trkpt lat="43.53191" lon="2.3042">
        <ele>203.09409509656</ele>
        <time>2020-11-29T15:16:50Z</time>
      </trkpt>
      <trkpt lat="43.53183" lon="2.30417">
        <ele>204.18505780494</ele>
        <time>2020-11-29T15:16:56Z</time>
      </trkpt>
      <trkpt lat="43.53174" lon="2.30416">
        <ele>203.99307966268</ele>
        <time>2020-11-29T15:17:03Z</time>
      </trkpt>
      <trkpt lat="43.53166" lon="2.30417">
        <ele>204.63160944142</ele>
        <time>2020-11-29T15:17:10Z</time>
      </trkpt>
      <trkpt lat="43.53158" lon="2.30412">
        <ele>204.16449706297</ele>
        <time>2020-11-29T15:17:19Z</time>
      </trkpt>
      <trkpt lat="43.53152" lon="2.30406">
        <ele>203.31073063088</ele>
        <time>2020-11-29T15:17:26Z</time>
      </trkpt>
      <trkpt lat="43.53148" lon="2.30396">
        <ele>202.32977398005</ele>
        <time>2020-11-29T15:17:31Z</time>
      </trkpt>
      <trkpt lat="43.53143" lon="2.30385">
        <ele>199.81211359876</ele>
        <time>2020-11-29T15:17:37Z</time>
      </trkpt>
      <trkpt lat="43.53136" lon="2.3038">
        <ele>194.5502650665</ele>
        <time>2020-11-29T15:17:46Z</time>
      </trkpt>
      <trkpt lat="43.53128" lon="2.30375">
        <ele>192.98241563786</ele>
        <time>2020-11-29T15:17:53Z</time>
      </trkpt>
      <trkpt lat="43.5312" lon="2.30375">
        <ele>193.18685980246</ele>
        <time>2020-11-29T15:18:00Z</time>
      </trkpt>
      <trkpt lat="43.53115" lon="2.30367">
        <ele>192.57588824909</ele>
        <time>2020-11-29T15:18:05Z</time>
      </trkpt>
      <trkpt lat="43.53114" lon="2.30355">
        <ele>191.03253119227</ele>
        <time>2020-11-29T15:18:10Z</time>
      </trkpt>
      <trkpt lat="43.53112" lon="2.30344">
        <ele>190.19422514431</ele>
        <time>2020-11-29T15:18:16Z</time>
      </trkpt>
      <trkpt lat="43.53113" lon="2.30333">
        <ele>190.232492182</ele>
        <time>2020-11-29T15:18:24Z</time>
      </trkpt>
      <trkpt lat="43.53112" lon="2.30322">
        <ele>189.31672717666</ele>
        <time>2020-11-29T15:18:32Z</time>
      </trkpt>
      <trkpt lat="43.53111" lon="2.30311">
        <ele>189.00282029088</ele>
        <time>2020-11-29T15:18:39Z</time>
      </trkpt>
      <trkpt lat="43.53109" lon="2.303">
        <ele>187.75530332867</ele>
        <time>2020-11-29T15:18:47Z</time>
      </trkpt>
      <trkpt lat="43.53111" lon="2.30289">
        <ele>187.03675183486</ele>
        <time>2020-11-29T15:18:53Z</time>
      </trkpt>
      <trkpt lat="43.53111" lon="2.30277">
        <ele>186.67118262841</ele>
        <time>2020-11-29T15:18:59Z</time>
      </trkpt>
      <trkpt lat="43.53107" lon="2.30268">
        <ele>187.66510397698</ele>
        <time>2020-11-29T15:19:06Z</time>
      </trkpt>
      <trkpt lat="43.53103" lon="2.30257">
        <ele>188.00112903077</ele>
        <time>2020-11-29T15:19:12Z</time>
      </trkpt>
      <trkpt lat="43.53102" lon="2.30247">
        <ele>188.03652195845</ele>
        <time>2020-11-29T15:19:19Z</time>
      </trkpt>
      <trkpt lat="43.53099" lon="2.30235">
        <ele>187.58469265675</ele>
        <time>2020-11-29T15:19:27Z</time>
      </trkpt>
      <trkpt lat="43.53099" lon="2.30225">
        <ele>186.76940936404</ele>
        <time>2020-11-29T15:19:34Z</time>
      </trkpt>
      <trkpt lat="43.53099" lon="2.30213">
        <ele>185.48090467301</ele>
        <time>2020-11-29T15:19:42Z</time>
      </trkpt>
      <trkpt lat="43.53095" lon="2.30202">
        <ele>184.92825670959</ele>
        <time>2020-11-29T15:19:50Z</time>
      </trkpt>
      <trkpt lat="43.53091" lon="2.30191">
        <ele>184.12232010192</ele>
        <time>2020-11-29T15:19:58Z</time>
      </trkpt>
      <trkpt lat="43.53087" lon="2.30182">
        <ele>182.68774177363</ele>
        <time>2020-11-29T15:20:07Z</time>
      </trkpt>
      <trkpt lat="43.5308" lon="2.30176">
        <ele>183.47544265436</ele>
        <time>2020-11-29T15:20:14Z</time>
      </trkpt>
      <trkpt lat="43.53075" lon="2.30167">
        <ele>183.82991191055</ele>
        <time>2020-11-29T15:20:21Z</time>
      </trkpt>
      <trkpt lat="43.53069" lon="2.30158">
        <ele>184.70486854984</ele>
        <time>2020-11-29T15:20:29Z</time>
      </trkpt>
      <trkpt lat="43.53063" lon="2.3015">
        <ele>185.83168448242</ele>
        <time>2020-11-29T15:20:35Z</time>
      </trkpt>
      <trkpt lat="43.53057" lon="2.30142">
        <ele>185.85477785984</ele>
        <time>2020-11-29T15:20:43Z</time>
      </trkpt>
      <trkpt lat="43.53053" lon="2.30132">
        <ele>185.83696177746</ele>
        <time>2020-11-29T15:20:49Z</time>
      </trkpt>
      <trkpt lat="43.53048" lon="2.30122">
        <ele>186.84198441444</ele>
        <time>2020-11-29T15:20:56Z</time>
      </trkpt>
      <trkpt lat="43.5304" lon="2.30117">
        <ele>188.171256622</ele>
        <time>2020-11-29T15:21:04Z</time>
      </trkpt>
      <trkpt lat="43.53033" lon="2.30109">
        <ele>187.70539701008</ele>
        <time>2020-11-29T15:21:11Z</time>
      </trkpt>
      <trkpt lat="43.53032" lon="2.30098">
        <ele>187.05577358367</ele>
        <time>2020-11-29T15:21:17Z</time>
      </trkpt>
      <trkpt lat="43.53028" lon="2.30087">
        <ele>185.73947414849</ele>
        <time>2020-11-29T15:21:29Z</time>
      </trkpt>
      <trkpt lat="43.5302" lon="2.30085">
        <ele>186.33566421775</ele>
        <time>2020-11-29T15:21:36Z</time>
      </trkpt>
      <trkpt lat="43.53012" lon="2.30084">
        <ele>187.41190797712</ele>
        <time>2020-11-29T15:21:42Z</time>
      </trkpt>
      <trkpt lat="43.53003" lon="2.30087">
        <ele>189.19846990812</ele>
        <time>2020-11-29T15:21:47Z</time>
      </trkpt>
      <trkpt lat="43.52995" lon="2.30088">
        <ele>190.38797749609</ele>
        <time>2020-11-29T15:21:54Z</time>
      </trkpt>
      <trkpt lat="43.52987" lon="2.30083">
        <ele>192.28610607645</ele>
        <time>2020-11-29T15:22:02Z</time>
      </trkpt>
      <trkpt lat="43.52979" lon="2.30081">
        <ele>194.39152497692</ele>
        <time>2020-11-29T15:22:08Z</time>
      </trkpt>
      <trkpt lat="43.52971" lon="2.30075">
        <ele>194.85309438385</ele>
        <time>2020-11-29T15:22:12Z</time>
      </trkpt>
      <trkpt lat="43.52963" lon="2.30071">
        <ele>196.56026304508</ele>
        <time>2020-11-29T15:22:18Z</time>
      </trkpt>
      <trkpt lat="43.52956" lon="2.30067">
        <ele>198.63500284425</ele>
        <time>2020-11-29T15:22:26Z</time>
      </trkpt>
      <trkpt lat="43.52948" lon="2.30067">
        <ele>199.19438909751</ele>
        <time>2020-11-29T15:22:32Z</time>
      </trkpt>
      <trkpt lat="43.5294" lon="2.30072">
        <ele>201.2910249315</ele>
        <time>2020-11-29T15:22:49Z</time>
      </trkpt>
      <trkpt lat="43.5294" lon="2.30072">
        <ele>201.2910249315</ele>
        <time>2020-11-29T15:22:50Z</time>
      </trkpt>
    </trkseg>
  </trk>
</gpx>